Uxbridge, Canada
Current Conditions -  °F | °C
As of 1:00 AM on Friday 19 Dec 2014 (Local Time) from CYKZ Reporting Station
Overcast Overcast  
Wind Chill: -13°   Ceiling: 1300
Heat Index: -6°   Visibility: 15mi
Dew Point: -8°   Wind: 14mph
Humidity: 86%   Direction: 340°NNW
Pressure: 30.1"   Gusts: NA
Location:  44.1°N, 79.12°W
Report Text: CYKZ 190600Z 34012KT 15SM OVC013 M06/M08 A3010 RMK SC8 SLP204
Loading
Personal Weather Stations






























Interactive Weather Map New forecast layout! Learn more

10-Day Weather Forecast

Advertisements
Track Severe Weather on mobile